Happy, Arkansas
Current Conditions -  °F | °C
As of 10:56 PM on Sunday 19 Oct 2014 (Local Time) from KSRC Reporting Station
Clear Clear  
Wind Chill: 48°   Ceiling: Unl
Heat Index: 48°   Visibility: 10mi
Dew Point: 47°   Wind: 0mph
Humidity: 96%   Direction: NA
Pressure: 30.11"   Gusts: NA
Location:  35.2662°N, 91.8491°W
Report Text: KSRC 200356Z AUTO 00000KT 10SM CLR 09/08 A3011 RMK AO2 SLP204 T00890083 TSNO
Loading
Personal Weather Stations






























Interactive Weather Map
Tropical Storm Tracking
New forecast layout! Learn more

10-Day Weather Forecast

Advertisements
Track Severe Weather on mobile